sensor_id;sensor_type;location;lat;lon;timestamp;P1;durP1;ratioP1;P2;durP2;ratioP2
66987;SDS011;53908;51.464;-2.588;2022-09-03T00:00:51;8.15;;;6.32;;
66987;SDS011;53908;51.464;-2.588;2022-09-03T00:03:33;11.82;;;6.43;;
66987;SDS011;53908;51.464;-2.588;2022-09-03T00:06:10;11.90;;;7.13;;
66987;SDS011;53908;51.464;-2.588;2022-09-03T00:11:19;12.45;;;6.70;;
66987;SDS011;53908;51.464;-2.588;2022-09-03T00:13:54;15.02;;;7.78;;
66987;SDS011;53908;51.464;-2.588;2022-09-03T00:16:24;14.68;;;7.28;;
66987;SDS011;53908;51.464;-2.588;2022-09-03T00:18:57;15.10;;;6.93;;
66987;SDS011;53908;51.464;-2.588;2022-09-03T00:21:40;15.80;;;7.60;;
66987;SDS011;53908;51.464;-2.588;2022-09-03T00:24:10;10.90;;;7.38;;
66987;SDS011;53908;51.464;-2.588;2022-09-03T00:26:38;8.88;;;7.07;;
66987;SDS011;53908;51.464;-2.588;2022-09-03T00:29:10;13.27;;;7.43;;
66987;SDS011;53908;51.464;-2.588;2022-09-03T00:31:47;13.55;;;7.60;;
66987;SDS011;53908;51.464;-2.588;2022-09-03T00:34:19;11.88;;;7.60;;
66987;SDS011;53908;51.464;-2.588;2022-09-03T00:36:48;11.88;;;7.28;;
66987;SDS011;53908;51.464;-2.588;2022-09-03T00:39:18;11.73;;;7.22;;
66987;SDS011;53908;51.464;-2.588;2022-09-03T00:47:19;10.88;;;7.55;;
66987;SDS011;53908;51.464;-2.588;2022-09-03T01:01:06;14.02;;;7.55;;
66987;SDS011;53908;51.464;-2.588;2022-09-03T01:06:46;9.63;;;7.82;;
66987;SDS011;53908;51.464;-2.588;2022-09-03T01:15:10;11.20;;;7.13;;
66987;SDS011;53908;51.464;-2.588;2022-09-03T01:17:45;13.60;;;8.40;;
66987;SDS011;53908;51.464;-2.588;2022-09-03T01:21:03;10.75;;;7.97;;
66987;SDS011;53908;51.464;-2.588;2022-09-03T01:23:19;13.25;;;7.80;;
66987;SDS011;53908;51.464;-2.588;2022-09-03T01:34:40;12.77;;;8.02;;
66987;SDS011;53908;51.464;-2.588;2022-09-03T01:39:53;14.73;;;8.07;;
66987;SDS011;53908;51.464;-2.588;2022-09-03T01:47:40;11.05;;;8.35;;
66987;SDS011;53908;51.464;-2.588;2022-09-03T01:58:10;12.75;;;8.30;;
66987;SDS011;53908;51.464;-2.588;2022-09-03T02:01:17;11.48;;;8.98;;
66987;SDS011;53908;51.464;-2.588;2022-09-03T02:03:54;13.68;;;8.65;;
66987;SDS011;53908;51.464;-2.588;2022-09-03T02:06:24;14.07;;;8.82;;
66987;SDS011;53908;51.464;-2.588;2022-09-03T02:08:50;15.95;;;9.00;;
66987;SDS011;53908;51.464;-2.588;2022-09-03T02:11:16;11.00;;;8.95;;
66987;SDS011;53908;51.464;-2.588;2022-09-03T02:13:52;12.45;;;8.68;;
66987;SDS011;53908;51.464;-2.588;2022-09-03T02:16:20;12.82;;;9.45;;
66987;SDS011;53908;51.464;-2.588;2022-09-03T02:19:07;13.30;;;9.05;;
66987;SDS011;53908;51.464;-2.588;2022-09-03T02:21:36;13.48;;;9.23;;
66987;SDS011;53908;51.464;-2.588;2022-09-03T02:24:03;12.85;;;8.75;;
66987;SDS011;53908;51.464;-2.588;2022-09-03T02:26:29;12.30;;;9.48;;
66987;SDS011;53908;51.464;-2.588;2022-09-03T02:28:55;14.55;;;9.82;;
66987;SDS011;53908;51.464;-2.588;2022-09-03T02:31:21;12.65;;;10.20;;
66987;SDS011;53908;51.464;-2.588;2022-09-03T02:33:47;14.65;;;10.68;;
66987;SDS011;53908;51.464;-2.588;2022-09-03T02:36:14;14.98;;;10.25;;
66987;SDS011;53908;51.464;-2.588;2022-09-03T02:38:41;18.38;;;10.65;;
66987;SDS011;53908;51.464;-2.588;2022-09-03T02:41:07;12.88;;;10.45;;
66987;SDS011;53908;51.464;-2.588;2022-09-03T02:43:35;12.68;;;10.02;;
66987;SDS011;53908;51.464;-2.588;2022-09-03T02:46:04;13.57;;;9.95;;
66987;SDS011;53908;51.464;-2.588;2022-09-03T02:48:33;15.65;;;10.63;;
66987;SDS011;53908;51.464;-2.588;2022-09-03T02:50:59;15.75;;;10.38;;
66987;SDS011;53908;51.464;-2.588;2022-09-03T02:53:25;15.23;;;11.05;;
66987;SDS011;53908;51.464;-2.588;2022-09-03T02:55:56;16.02;;;11.80;;
66987;SDS011;53908;51.464;-2.588;2022-09-03T02:58:25;17.38;;;12.27;;
66987;SDS011;53908;51.464;-2.588;2022-09-03T03:00:50;21.08;;;13.80;;
66987;SDS011;53908;51.464;-2.588;2022-09-03T03:03:16;22.42;;;14.52;;
66987;SDS011;53908;51.464;-2.588;2022-09-03T03:05:54;23.60;;;16.40;;
66987;SDS011;53908;51.464;-2.588;2022-09-03T03:08:23;22.25;;;16.25;;
66987;SDS011;53908;51.464;-2.588;2022-09-03T03:10:56;26.25;;;17.63;;
66987;SDS011;53908;51.464;-2.588;2022-09-03T03:13:26;23.52;;;15.82;;
66987;SDS011;53908;51.464;-2.588;2022-09-03T03:15:56;23.25;;;15.23;;
66987;SDS011;53908;51.464;-2.588;2022-09-03T03:18:23;20.65;;;13.70;;
66987;SDS011;53908;51.464;-2.588;2022-09-03T03:20:49;20.35;;;13.70;;
66987;SDS011;53908;51.464;-2.588;2022-09-03T03:23:14;20.75;;;13.75;;
66987;SDS011;53908;51.464;-2.588;2022-09-03T03:25:39;19.20;;;13.93;;
66987;SDS011;53908;51.464;-2.588;2022-09-03T03:28:05;19.17;;;13.82;;
66987;SDS011;53908;51.464;-2.588;2022-09-03T03:30:31;19.08;;;13.45;;
66987;SDS011;53908;51.464;-2.588;2022-09-03T03:32:57;20.77;;;14.73;;
66987;SDS011;53908;51.464;-2.588;2022-09-03T03:35:22;24.25;;;14.57;;
66987;SDS011;53908;51.464;-2.588;2022-09-03T03:37:48;25.73;;;15.32;;
66987;SDS011;53908;51.464;-2.588;2022-09-03T03:40:13;23.10;;;14.95;;
66987;SDS011;53908;51.464;-2.588;2022-09-03T03:42:39;23.90;;;16.42;;
66987;SDS011;53908;51.464;-2.588;2022-09-03T03:45:05;28.02;;;16.38;;
66987;SDS011;53908;51.464;-2.588;2022-09-03T03:47:31;26.05;;;17.35;;
66987;SDS011;53908;51.464;-2.588;2022-09-03T03:49:57;32.38;;;18.95;;
66987;SDS011;53908;51.464;-2.588;2022-09-03T03:52:23;30.73;;;18.77;;
66987;SDS011;53908;51.464;-2.588;2022-09-03T03:54:49;33.53;;;19.98;;
66987;SDS011;53908;51.464;-2.588;2022-09-03T03:57:15;34.70;;;18.90;;
66987;SDS011;53908;51.464;-2.588;2022-09-03T03:59:41;32.15;;;19.20;;
66987;SDS011;53908;51.464;-2.588;2022-09-03T04:02:06;31.90;;;18.77;;
66987;SDS011;53908;51.464;-2.588;2022-09-03T04:04:32;35.25;;;19.15;;
66987;SDS011;53908;51.464;-2.588;2022-09-03T04:06:58;40.80;;;20.73;;
66987;SDS011;53908;51.464;-2.588;2022-09-03T04:09:23;37.83;;;21.35;;
66987;SDS011;53908;51.464;-2.588;2022-09-03T04:11:49;38.33;;;20.98;;
66987;SDS011;53908;51.464;-2.588;2022-09-03T04:14:15;37.60;;;21.25;;
66987;SDS011;53908;51.464;-2.588;2022-09-03T04:16:42;38.50;;;22.17;;
66987;SDS011;53908;51.464;-2.588;2022-09-03T04:19:10;38.20;;;21.67;;
66987;SDS011;53908;51.464;-2.588;2022-09-03T04:21:36;40.45;;;21.48;;
66987;SDS011;53908;51.464;-2.588;2022-09-03T04:24:02;37.90;;;22.00;;
66987;SDS011;53908;51.464;-2.588;2022-09-03T04:26:29;36.85;;;21.63;;
66987;SDS011;53908;51.464;-2.588;2022-09-03T04:28:58;42.58;;;22.13;;
66987;SDS011;53908;51.464;-2.588;2022-09-03T04:31:25;40.22;;;21.70;;
66987;SDS011;53908;51.464;-2.588;2022-09-03T04:33:51;37.30;;;21.98;;
66987;SDS011;53908;51.464;-2.588;2022-09-03T04:36:17;39.10;;;22.27;;
66987;SDS011;53908;51.464;-2.588;2022-09-03T04:38:45;40.97;;;21.88;;
66987;SDS011;53908;51.464;-2.588;2022-09-03T04:41:13;41.58;;;22.65;;
66987;SDS011;53908;51.464;-2.588;2022-09-03T04:43:39;37.17;;;21.55;;
66987;SDS011;53908;51.464;-2.588;2022-09-03T04:46:08;35.08;;;20.50;;
66987;SDS011;53908;51.464;-2.588;2022-09-03T04:48:35;36.50;;;21.45;;
66987;SDS011;53908;51.464;-2.588;2022-09-03T04:51:11;35.50;;;20.42;;
66987;SDS011;53908;51.464;-2.588;2022-09-03T04:53:39;36.00;;;21.05;;
66987;SDS011;53908;51.464;-2.588;2022-09-03T04:58:38;42.25;;;21.33;;
66987;SDS011;53908;51.464;-2.588;2022-09-03T05:01:07;40.50;;;21.52;;
66987;SDS011;53908;51.464;-2.588;2022-09-03T05:03:37;36.00;;;21.13;;
66987;SDS011;53908;51.464;-2.588;2022-09-03T05:06:02;38.90;;;20.80;;
66987;SDS011;53908;51.464;-2.588;2022-09-03T05:08:30;37.22;;;21.00;;
66987;SDS011;53908;51.464;-2.588;2022-09-03T05:10:59;38.17;;;20.80;;
66987;SDS011;53908;51.464;-2.588;2022-09-03T05:13:25;40.53;;;22.13;;
66987;SDS011;53908;51.464;-2.588;2022-09-03T05:15:52;36.85;;;20.40;;
66987;SDS011;53908;51.464;-2.588;2022-09-03T05:18:22;33.20;;;20.27;;
66987;SDS011;53908;51.464;-2.588;2022-09-03T05:20:56;34.95;;;20.23;;
66987;SDS011;53908;51.464;-2.588;2022-09-03T05:23:27;36.40;;;18.95;;
66987;SDS011;53908;51.464;-2.588;2022-09-03T05:25:58;32.88;;;18.70;;
66987;SDS011;53908;51.464;-2.588;2022-09-03T05:28:25;35.67;;;20.25;;
66987;SDS011;53908;51.464;-2.588;2022-09-03T05:31:01;38.17;;;20.15;;
66987;SDS011;53908;51.464;-2.588;2022-09-03T05:33:34;30.00;;;18.65;;
66987;SDS011;53908;51.464;-2.588;2022-09-03T05:36:04;32.63;;;18.45;;
66987;SDS011;53908;51.464;-2.588;2022-09-03T05:38:32;31.85;;;18.38;;
66987;SDS011;53908;51.464;-2.588;2022-09-03T05:40:58;35.45;;;19.30;;
66987;SDS011;53908;51.464;-2.588;2022-09-03T05:43:25;37.15;;;19.02;;
66987;SDS011;53908;51.464;-2.588;2022-09-03T05:45:57;29.88;;;18.13;;
66987;SDS011;53908;51.464;-2.588;2022-09-03T05:48:24;33.10;;;18.65;;
66987;SDS011;53908;51.464;-2.588;2022-09-03T05:51:00;31.35;;;17.27;;
66987;SDS011;53908;51.464;-2.588;2022-09-03T05:53:27;29.83;;;17.30;;
66987;SDS011;53908;51.464;-2.588;2022-09-03T05:55:57;28.27;;;16.65;;
66987;SDS011;53908;51.464;-2.588;2022-09-03T06:01:23;28.23;;;15.65;;
66987;SDS011;53908;51.464;-2.588;2022-09-03T06:03:55;30.42;;;16.52;;
66987;SDS011;53908;51.464;-2.588;2022-09-03T06:06:25;26.08;;;15.13;;
66987;SDS011;53908;51.464;-2.588;2022-09-03T06:08:55;28.02;;;15.73;;
66987;SDS011;53908;51.464;-2.588;2022-09-03T06:11:22;28.85;;;15.90;;
66987;SDS011;53908;51.464;-2.588;2022-09-03T06:13:51;26.00;;;16.52;;
66987;SDS011;53908;51.464;-2.588;2022-09-03T06:16:20;29.35;;;16.08;;
66987;SDS011;53908;51.464;-2.588;2022-09-03T06:18:46;24.73;;;15.43;;
66987;SDS011;53908;51.464;-2.588;2022-09-03T06:21:13;27.23;;;14.30;;
66987;SDS011;53908;51.464;-2.588;2022-09-03T06:23:39;21.98;;;13.98;;
66987;SDS011;53908;51.464;-2.588;2022-09-03T06:26:09;22.05;;;14.15;;
66987;SDS011;53908;51.464;-2.588;2022-09-03T06:28:37;23.33;;;14.80;;
66987;SDS011;53908;51.464;-2.588;2022-09-03T06:31:04;22.90;;;14.02;;
66987;SDS011;53908;51.464;-2.588;2022-09-03T06:33:31;22.77;;;14.13;;
66987;SDS011;53908;51.464;-2.588;2022-09-03T06:35:58;21.00;;;13.82;;
66987;SDS011;53908;51.464;-2.588;2022-09-03T06:38:25;21.10;;;13.32;;
66987;SDS011;53908;51.464;-2.588;2022-09-03T06:40:55;19.00;;;13.27;;
66987;SDS011;53908;51.464;-2.588;2022-09-03T06:43:21;20.83;;;14.48;;
66987;SDS011;53908;51.464;-2.588;2022-09-03T06:45:57;19.58;;;13.40;;
66987;SDS011;53908;51.464;-2.588;2022-09-03T06:48:28;21.40;;;13.63;;
66987;SDS011;53908;51.464;-2.588;2022-09-03T06:51:04;20.48;;;13.88;;
66987;SDS011;53908;51.464;-2.588;2022-09-03T06:53:34;21.05;;;14.07;;
66987;SDS011;53908;51.464;-2.588;2022-09-03T06:56:02;19.42;;;13.68;;
66987;SDS011;53908;51.464;-2.588;2022-09-03T06:58:30;21.55;;;15.20;;
66987;SDS011;53908;51.464;-2.588;2022-09-03T07:01:09;23.23;;;14.98;;
66987;SDS011;53908;51.464;-2.588;2022-09-03T07:03:37;21.35;;;14.88;;
66987;SDS011;53908;51.464;-2.588;2022-09-03T07:06:04;20.25;;;14.57;;
66987;SDS011;53908;51.464;-2.588;2022-09-03T07:08:31;19.70;;;14.52;;
66987;SDS011;53908;51.464;-2.588;2022-09-03T07:11:01;20.85;;;14.88;;
66987;SDS011;53908;51.464;-2.588;2022-09-03T07:13:30;22.30;;;15.77;;
66987;SDS011;53908;51.464;-2.588;2022-09-03T07:16:00;23.27;;;15.35;;
66987;SDS011;53908;51.464;-2.588;2022-09-03T07:18:27;26.60;;;15.65;;
66987;SDS011;53908;51.464;-2.588;2022-09-03T07:20:56;24.60;;;16.27;;
66987;SDS011;53908;51.464;-2.588;2022-09-03T07:23:23;21.30;;;15.90;;
66987;SDS011;53908;51.464;-2.588;2022-09-03T07:25:55;24.70;;;16.27;;
66987;SDS011;53908;51.464;-2.588;2022-09-03T07:28:21;30.80;;;15.50;;
66987;SDS011;53908;51.464;-2.588;2022-09-03T07:30:48;23.75;;;15.15;;
66987;SDS011;53908;51.464;-2.588;2022-09-03T07:33:14;23.20;;;15.50;;
66987;SDS011;53908;51.464;-2.588;2022-09-03T07:35:40;22.08;;;15.52;;
66987;SDS011;53908;51.464;-2.588;2022-09-03T07:38:05;20.83;;;15.15;;
66987;SDS011;53908;51.464;-2.588;2022-09-03T07:40:31;20.50;;;14.40;;
66987;SDS011;53908;51.464;-2.588;2022-09-03T07:42:57;20.70;;;14.88;;
66987;SDS011;53908;51.464;-2.588;2022-09-03T07:45:28;21.13;;;14.80;;
66987;SDS011;53908;51.464;-2.588;2022-09-03T07:47:55;25.30;;;15.50;;
66987;SDS011;53908;51.464;-2.588;2022-09-03T07:50:20;20.55;;;13.25;;
66987;SDS011;53908;51.464;-2.588;2022-09-03T07:52:46;25.95;;;14.82;;
66987;SDS011;53908;51.464;-2.588;2022-09-03T07:55:11;22.50;;;14.82;;
66987;SDS011;53908;51.464;-2.588;2022-09-03T07:57:38;21.88;;;14.25;;
66987;SDS011;53908;51.464;-2.588;2022-09-03T08:00:04;22.58;;;14.75;;
66987;SDS011;53908;51.464;-2.588;2022-09-03T08:02:34;23.42;;;15.00;;
66987;SDS011;53908;51.464;-2.588;2022-09-03T08:04:59;22.02;;;14.90;;
66987;SDS011;53908;51.464;-2.588;2022-09-03T08:07:27;20.10;;;13.68;;
66987;SDS011;53908;51.464;-2.588;2022-09-03T08:09:53;20.60;;;13.48;;
66987;SDS011;53908;51.464;-2.588;2022-09-03T08:12:19;18.95;;;13.63;;
66987;SDS011;53908;51.464;-2.588;2022-09-03T08:14:44;18.63;;;12.63;;
66987;SDS011;53908;51.464;-2.588;2022-09-03T08:17:10;19.65;;;13.07;;
66987;SDS011;53908;51.464;-2.588;2022-09-03T08:19:37;21.58;;;13.30;;
66987;SDS011;53908;51.464;-2.588;2022-09-03T08:22:04;17.52;;;12.13;;
66987;SDS011;53908;51.464;-2.588;2022-09-03T08:24:30;18.25;;;12.52;;
66987;SDS011;53908;51.464;-2.588;2022-09-03T08:26:58;19.52;;;12.43;;
66987;SDS011;53908;51.464;-2.588;2022-09-03T08:29:23;19.00;;;11.52;;
66987;SDS011;53908;51.464;-2.588;2022-09-03T08:31:49;16.67;;;10.98;;
66987;SDS011;53908;51.464;-2.588;2022-09-03T08:34:14;16.10;;;10.55;;
66987;SDS011;53908;51.464;-2.588;2022-09-03T08:36:41;11.50;;;9.15;;
66987;SDS011;53908;51.464;-2.588;2022-09-03T08:39:07;12.35;;;8.77;;
66987;SDS011;53908;51.464;-2.588;2022-09-03T08:47:11;12.13;;;7.65;;
66987;SDS011;53908;51.464;-2.588;2022-09-03T08:55:50;13.85;;;9.85;;
66987;SDS011;53908;51.464;-2.588;2022-09-03T08:58:21;14.10;;;8.48;;
66987;SDS011;53908;51.464;-2.588;2022-09-03T09:14:29;16.27;;;11.18;;
66987;SDS011;53908;51.464;-2.588;2022-09-03T09:19:56;16.48;;;12.05;;
66987;SDS011;53908;51.464;-2.588;2022-09-03T09:22:50;18.48;;;13.07;;
66987;SDS011;53908;51.464;-2.588;2022-09-03T09:25:20;21.88;;;14.13;;
66987;SDS011;53908;51.464;-2.588;2022-09-03T09:30:21;26.52;;;15.35;;
66987;SDS011;53908;51.464;-2.588;2022-09-03T09:32:46;26.00;;;15.02;;
66987;SDS011;53908;51.464;-2.588;2022-09-03T09:35:13;22.33;;;15.60;;
66987;SDS011;53908;51.464;-2.588;2022-09-03T09:37:56;24.92;;;16.73;;
66987;SDS011;53908;51.464;-2.588;2022-09-03T09:40:25;23.75;;;16.08;;
66987;SDS011;53908;51.464;-2.588;2022-09-03T09:43:06;20.92;;;15.82;;
66987;SDS011;53908;51.464;-2.588;2022-09-03T09:45:35;26.80;;;16.05;;
66987;SDS011;53908;51.464;-2.588;2022-09-03T09:48:06;21.17;;;15.60;;
66987;SDS011;53908;51.464;-2.588;2022-09-03T09:50:34;21.08;;;15.52;;
66987;SDS011;53908;51.464;-2.588;2022-09-03T09:53:01;21.27;;;15.35;;
66987;SDS011;53908;51.464;-2.588;2022-09-03T09:55:32;22.88;;;15.23;;
66987;SDS011;53908;51.464;-2.588;2022-09-03T09:58:05;23.73;;;15.80;;
66987;SDS011;53908;51.464;-2.588;2022-09-03T10:00:33;22.08;;;15.50;;
66987;SDS011;53908;51.464;-2.588;2022-09-03T10:03:01;24.83;;;15.25;;
66987;SDS011;53908;51.464;-2.588;2022-09-03T10:05:31;23.50;;;14.57;;
66987;SDS011;53908;51.464;-2.588;2022-09-03T10:08:02;20.23;;;14.07;;
66987;SDS011;53908;51.464;-2.588;2022-09-03T10:10:32;21.50;;;12.90;;
66987;SDS011;53908;51.464;-2.588;2022-09-03T10:13:04;20.52;;;13.27;;
66987;SDS011;53908;51.464;-2.588;2022-09-03T10:15:39;20.90;;;14.47;;
66987;SDS011;53908;51.464;-2.588;2022-09-03T10:18:16;20.05;;;14.65;;
66987;SDS011;53908;51.464;-2.588;2022-09-03T10:23:51;18.52;;;11.93;;
66987;SDS011;53908;51.464;-2.588;2022-09-03T10:26:21;15.48;;;10.95;;
66987;SDS011;53908;51.464;-2.588;2022-09-03T10:28:56;17.98;;;11.60;;
66987;SDS011;53908;51.464;-2.588;2022-09-03T10:34:21;16.65;;;9.48;;
66987;SDS011;53908;51.464;-2.588;2022-09-03T10:51:14;10.40;;;7.53;;
66987;SDS011;53908;51.464;-2.588;2022-09-03T10:56:17;9.13;;;5.60;;
66987;SDS011;53908;51.464;-2.588;2022-09-03T11:01:36;14.27;;;4.82;;
66987;SDS011;53908;51.464;-2.588;2022-09-03T11:12:15;11.20;;;6.30;;
66987;SDS011;53908;51.464;-2.588;2022-09-03T11:14:50;10.50;;;5.55;;
66987;SDS011;53908;51.464;-2.588;2022-09-03T11:17:24;12.98;;;6.05;;
66987;SDS011;53908;51.464;-2.588;2022-09-03T11:19:54;9.98;;;6.20;;
66987;SDS011;53908;51.464;-2.588;2022-09-03T11:22:22;11.48;;;6.25;;
66987;SDS011;53908;51.464;-2.588;2022-09-03T11:24:50;13.75;;;6.30;;
66987;SDS011;53908;51.464;-2.588;2022-09-03T11:27:25;10.68;;;6.88;;
66987;SDS011;53908;51.464;-2.588;2022-09-03T11:30:02;12.50;;;6.80;;
66987;SDS011;53908;51.464;-2.588;2022-09-03T11:35:14;11.43;;;7.60;;
66987;SDS011;53908;51.464;-2.588;2022-09-03T11:37:47;13.63;;;8.27;;
66987;SDS011;53908;51.464;-2.588;2022-09-03T11:40:17;14.85;;;7.97;;
66987;SDS011;53908;51.464;-2.588;2022-09-03T11:42:44;14.15;;;7.60;;
66987;SDS011;53908;51.464;-2.588;2022-09-03T11:48:18;12.43;;;7.70;;
66987;SDS011;53908;51.464;-2.588;2022-09-03T11:50:57;11.75;;;7.78;;
66987;SDS011;53908;51.464;-2.588;2022-09-03T11:53:25;13.13;;;7.97;;
66987;SDS011;53908;51.464;-2.588;2022-09-03T11:55:58;11.98;;;7.50;;
66987;SDS011;53908;51.464;-2.588;2022-09-03T11:58:30;12.65;;;8.80;;
66987;SDS011;53908;51.464;-2.588;2022-09-03T12:00:59;10.77;;;7.65;;
66987;SDS011;53908;51.464;-2.588;2022-09-03T12:03:45;12.40;;;7.80;;
66987;SDS011;53908;51.464;-2.588;2022-09-03T12:17:53;9.60;;;6.85;;
66987;SDS011;53908;51.464;-2.588;2022-09-03T12:20:42;8.70;;;6.30;;
66987;SDS011;53908;51.464;-2.588;2022-09-03T12:23:12;7.47;;;5.65;;
66987;SDS011;53908;51.464;-2.588;2022-09-03T12:25:52;15.18;;;6.95;;
66987;SDS011;53908;51.464;-2.588;2022-09-03T12:28:20;9.93;;;6.03;;
66987;SDS011;53908;51.464;-2.588;2022-09-03T12:30:51;11.88;;;5.57;;
66987;SDS011;53908;51.464;-2.588;2022-09-03T12:33:18;10.55;;;5.53;;
66987;SDS011;53908;51.464;-2.588;2022-09-03T12:35:58;9.00;;;5.20;;
66987;SDS011;53908;51.464;-2.588;2022-09-03T12:38:25;6.95;;;4.75;;
66987;SDS011;53908;51.464;-2.588;2022-09-03T12:40:51;7.40;;;4.38;;
66987;SDS011;53908;51.464;-2.588;2022-09-03T12:43:18;12.07;;;4.60;;
66987;SDS011;53908;51.464;-2.588;2022-09-03T12:45:45;6.90;;;3.65;;
66987;SDS011;53908;51.464;-2.588;2022-09-03T12:48:16;7.82;;;3.65;;
66987;SDS011;53908;51.464;-2.588;2022-09-03T12:50:43;5.88;;;3.83;;
66987;SDS011;53908;51.464;-2.588;2022-09-03T12:53:11;6.45;;;3.28;;
66987;SDS011;53908;51.464;-2.588;2022-09-03T13:06:23;8.00;;;3.03;;
66987;SDS011;53908;51.464;-2.588;2022-09-03T13:08:51;11.35;;;3.13;;
66987;SDS011;53908;51.464;-2.588;2022-09-03T13:11:28;6.53;;;3.50;;
66987;SDS011;53908;51.464;-2.588;2022-09-03T13:30:28;6.03;;;3.60;;
66987;SDS011;53908;51.464;-2.588;2022-09-03T13:33:05;6.65;;;3.65;;
66987;SDS011;53908;51.464;-2.588;2022-09-03T13:35:53;14.43;;;4.38;;
66987;SDS011;53908;51.464;-2.588;2022-09-03T13:46:51;9.02;;;4.68;;
66987;SDS011;53908;51.464;-2.588;2022-09-03T13:49:33;8.43;;;4.63;;
66987;SDS011;53908;51.464;-2.588;2022-09-03T14:11:22;10.48;;;3.58;;
66987;SDS011;53908;51.464;-2.588;2022-09-03T14:14:22;8.63;;;3.78;;
66987;SDS011;53908;51.464;-2.588;2022-09-03T14:16:58;10.05;;;3.70;;
66987;SDS011;53908;51.464;-2.588;2022-09-03T14:22:22;8.05;;;3.25;;
66987;SDS011;53908;51.464;-2.588;2022-09-03T14:24:51;6.10;;;3.28;;
66987;SDS011;53908;51.464;-2.588;2022-09-03T14:27:27;8.07;;;3.10;;
66987;SDS011;53908;51.464;-2.588;2022-09-03T14:30:16;8.25;;;3.17;;
66987;SDS011;53908;51.464;-2.588;2022-09-03T14:38:37;5.20;;;3.40;;
66987;SDS011;53908;51.464;-2.588;2022-09-03T14:46:43;11.02;;;4.25;;
66987;SDS011;53908;51.464;-2.588;2022-09-03T14:52:07;6.60;;;3.72;;
66987;SDS011;53908;51.464;-2.588;2022-09-03T14:55:04;9.40;;;3.97;;
66987;SDS011;53908;51.464;-2.588;2022-09-03T14:57:45;7.25;;;3.42;;
66987;SDS011;53908;51.464;-2.588;2022-09-03T15:11:45;5.95;;;2.85;;
66987;SDS011;53908;51.464;-2.588;2022-09-03T15:14:29;4.55;;;2.38;;
66987;SDS011;53908;51.464;-2.588;2022-09-03T15:20:14;7.78;;;2.83;;
66987;SDS011;53908;51.464;-2.588;2022-09-03T15:25:47;6.43;;;2.50;;
66987;SDS011;53908;51.464;-2.588;2022-09-03T15:33:49;8.02;;;2.10;;
66987;SDS011;53908;51.464;-2.588;2022-09-03T15:36:21;8.93;;;2.08;;
66987;SDS011;53908;51.464;-2.588;2022-09-03T15:38:49;3.75;;;1.95;;
66987;SDS011;53908;51.464;-2.588;2022-09-03T15:41:34;5.97;;;2.40;;
66987;SDS011;53908;51.464;-2.588;2022-09-03T15:44:06;3.42;;;1.80;;
66987;SDS011;53908;51.464;-2.588;2022-09-03T15:55:14;2.20;;;1.42;;
66987;SDS011;53908;51.464;-2.588;2022-09-03T16:09:48;5.00;;;1.65;;
66987;SDS011;53908;51.464;-2.588;2022-09-03T16:15:09;6.40;;;1.67;;
66987;SDS011;53908;51.464;-2.588;2022-09-03T16:25:30;5.50;;;1.48;;
66987;SDS011;53908;51.464;-2.588;2022-09-03T16:28:03;3.65;;;1.40;;
66987;SDS011;53908;51.464;-2.588;2022-09-03T16:36:28;4.70;;;1.60;;
66987;SDS011;53908;51.464;-2.588;2022-09-03T16:42:17;3.17;;;1.50;;
66987;SDS011;53908;51.464;-2.588;2022-09-03T16:45:38;2.03;;;1.40;;
66987;SDS011;53908;51.464;-2.588;2022-09-03T16:47:57;2.78;;;1.40;;
66987;SDS011;53908;51.464;-2.588;2022-09-03T16:53:14;4.70;;;1.60;;
66987;SDS011;53908;51.464;-2.588;2022-09-03T17:04:06;3.88;;;1.60;;
66987;SDS011;53908;51.464;-2.588;2022-09-03T17:06:54;7.07;;;1.73;;
66987;SDS011;53908;51.464;-2.588;2022-09-03T17:18:42;4.90;;;1.50;;
66987;SDS011;53908;51.464;-2.588;2022-09-03T17:21:20;6.93;;;1.75;;
66987;SDS011;53908;51.464;-2.588;2022-09-03T17:29:33;7.35;;;1.73;;
66987;SDS011;53908;51.464;-2.588;2022-09-03T17:35:16;4.85;;;1.80;;
66987;SDS011;53908;51.464;-2.588;2022-09-03T17:38:37;5.88;;;2.00;;
66987;SDS011;53908;51.464;-2.588;2022-09-03T17:43:52;6.70;;;2.00;;
66987;SDS011;53908;51.464;-2.588;2022-09-03T17:48:53;8.05;;;1.95;;
66987;SDS011;53908;51.464;-2.588;2022-09-03T17:56:32;7.78;;;2.10;;
66987;SDS011;53908;51.464;-2.588;2022-09-03T18:01:44;6.88;;;2.17;;
66987;SDS011;53908;51.464;-2.588;2022-09-03T18:07:12;6.95;;;2.30;;
66987;SDS011;53908;51.464;-2.588;2022-09-03T18:09:51;11.45;;;4.20;;
66987;SDS011;53908;51.464;-2.588;2022-09-03T18:15:47;11.70;;;2.10;;
66987;SDS011;53908;51.464;-2.588;2022-09-03T18:18:29;6.43;;;2.15;;
66987;SDS011;53908;51.464;-2.588;2022-09-03T18:21:02;7.65;;;3.00;;
66987;SDS011;53908;51.464;-2.588;2022-09-03T18:27:00;6.80;;;2.03;;
66987;SDS011;53908;51.464;-2.588;2022-09-03T18:32:48;5.80;;;2.70;;
66987;SDS011;53908;51.464;-2.588;2022-09-03T18:35:32;6.88;;;2.38;;
66987;SDS011;53908;51.464;-2.588;2022-09-03T18:38:23;8.55;;;2.58;;
66987;SDS011;53908;51.464;-2.588;2022-09-03T18:48:06;11.50;;;2.55;;
66987;SDS011;53908;51.464;-2.588;2022-09-03T18:56:49;7.78;;;2.22;;
66987;SDS011;53908;51.464;-2.588;2022-09-03T18:59:54;6.03;;;2.03;;
66987;SDS011;53908;51.464;-2.588;2022-09-03T19:09:08;7.15;;;2.22;;
66987;SDS011;53908;51.464;-2.588;2022-09-03T19:12:31;5.78;;;2.42;;
66987;SDS011;53908;51.464;-2.588;2022-09-03T19:15:52;7.25;;;2.63;;
66987;SDS011;53908;51.464;-2.588;2022-09-03T19:19:01;6.28;;;2.47;;
66987;SDS011;53908;51.464;-2.588;2022-09-03T19:21:48;3.33;;;2.28;;
66987;SDS011;53908;51.464;-2.588;2022-09-03T19:24:36;5.47;;;2.53;;
66987;SDS011;53908;51.464;-2.588;2022-09-03T19:27:23;6.07;;;2.40;;
66987;SDS011;53908;51.464;-2.588;2022-09-03T19:30:13;6.95;;;2.83;;
66987;SDS011;53908;51.464;-2.588;2022-09-03T19:36:09;5.88;;;2.67;;
66987;SDS011;53908;51.464;-2.588;2022-09-03T19:42:28;6.40;;;2.63;;
66987;SDS011;53908;51.464;-2.588;2022-09-03T19:51:19;7.00;;;2.80;;
66987;SDS011;53908;51.464;-2.588;2022-09-03T19:54:05;6.25;;;2.97;;
66987;SDS011;53908;51.464;-2.588;2022-09-03T19:56:50;7.53;;;2.90;;
66987;SDS011;53908;51.464;-2.588;2022-09-03T19:59:38;9.20;;;2.92;;
66987;SDS011;53908;51.464;-2.588;2022-09-03T20:02:23;9.65;;;3.00;;
66987;SDS011;53908;51.464;-2.588;2022-09-03T20:05:26;5.47;;;2.80;;
66987;SDS011;53908;51.464;-2.588;2022-09-03T20:08:11;7.53;;;2.77;;
66987;SDS011;53908;51.464;-2.588;2022-09-03T20:10:56;11.38;;;3.28;;
66987;SDS011;53908;51.464;-2.588;2022-09-03T20:13:23;9.30;;;2.85;;
66987;SDS011;53908;51.464;-2.588;2022-09-03T20:15:51;6.15;;;2.88;;
66987;SDS011;53908;51.464;-2.588;2022-09-03T20:18:36;6.60;;;2.90;;
66987;SDS011;53908;51.464;-2.588;2022-09-03T20:21:21;6.38;;;3.00;;
66987;SDS011;53908;51.464;-2.588;2022-09-03T20:34:30;9.93;;;3.75;;
66987;SDS011;53908;51.464;-2.588;2022-09-03T20:42:39;5.65;;;3.10;;
66987;SDS011;53908;51.464;-2.588;2022-09-03T20:51:15;9.63;;;3.10;;
66987;SDS011;53908;51.464;-2.588;2022-09-03T20:58:57;8.27;;;3.17;;
66987;SDS011;53908;51.464;-2.588;2022-09-03T21:01:55;7.18;;;3.53;;
66987;SDS011;53908;51.464;-2.588;2022-09-03T21:04:37;7.25;;;3.35;;
66987;SDS011;53908;51.464;-2.588;2022-09-03T21:09:40;6.95;;;3.25;;
66987;SDS011;53908;51.464;-2.588;2022-09-03T21:15:27;6.63;;;3.22;;
66987;SDS011;53908;51.464;-2.588;2022-09-03T21:20:45;5.63;;;3.30;;
66987;SDS011;53908;51.464;-2.588;2022-09-03T21:23:37;8.10;;;3.70;;
66987;SDS011;53908;51.464;-2.588;2022-09-03T21:31:32;9.90;;;3.28;;
66987;SDS011;53908;51.464;-2.588;2022-09-03T21:34:13;9.50;;;3.70;;